Aviation Digital Data Service (ADDS)

Output produced by TAFs form (2135 UTC 27 November 2014)
found at http://aviationweather.gov/adds/tafs/
 
KVEL 271720Z 2718/2818 00000KT P6SM SCT250 
     FM272000 08005KT P6SM BKN250 
     FM280100 29005KT P6SM SCT250 
     FM281200 30005KT P6SM FEW250